Terminal Aerodrome Forecast
Issued by NWS Wilmington, NC

Current Version | Previous Version | Text Only | Print | Product List | Glossary On
Versions: 1 2 3 4 5 6 7 8 9 10 11 12 13 14 15 16 17 18 19 20 21 22 23
737
FTUS42 KILM 240521
TAFFLO
TAF
KFLO 240521Z 2406/2506 22005KT P6SM VCTS OVC008CB
     FM240700 22005KT P6SM OVC008
     FM241500 20008KT P6SM BKN015 PROB30 2415/2417 2SM TSRA OVC005CB
     FM241700 19010G20KT 4SM SHRA OVC030 PROB30 2417/2423 2SM TS
      OVC005CB
     FM250400 21010KT P6SM OVC008 PROB30 2504/2506 2SM TSRA
      OVC005CB=

USA.gov is the U.S. government's official web portal to all federal, state and local government web resources and services.